createdAt,value
2023-11-20T00:02:00.510Z,97012.06
2023-11-20T00:04:27.559Z,97005.53
2023-11-20T00:06:54.560Z,97006.78
2023-11-20T00:09:21.597Z,97010.97
2023-11-20T00:11:48.432Z,97014.16
2023-11-20T00:14:15.389Z,97010.47
2023-11-20T00:16:42.281Z,97016.16
2023-11-20T00:19:12.155Z,97015.59
2023-11-20T00:21:42.605Z,97007.00
2023-11-20T00:24:10.668Z,97004.34
2023-11-20T00:26:38.247Z,97003.19
2023-11-20T00:29:07.837Z,97003.03
2023-11-20T00:31:37.448Z,96997.06
2023-11-20T00:34:04.719Z,96998.94
2023-11-20T00:36:31.869Z,96988.47
2023-11-20T00:39:01.255Z,96992.00
2023-11-20T00:41:32.551Z,96974.19
2023-11-20T00:44:00.863Z,96977.81
2023-11-20T00:46:27.791Z,96987.22
2023-11-20T00:48:54.794Z,96986.41
2023-11-20T00:51:23.470Z,96984.13
2023-11-20T00:53:50.684Z,96984.75
2023-11-20T00:56:20.956Z,96984.75
2023-11-20T00:58:47.821Z,96982.63
2023-11-20T01:01:15.165Z,96981.63
2023-11-20T01:03:42.274Z,96976.88
2023-11-20T01:06:10.448Z,96974.13
2023-11-20T01:08:37.746Z,96975.13
2023-11-20T01:11:11.812Z,96986.06
2023-11-20T01:13:39.948Z,96989.31
2023-11-20T01:16:07.517Z,96979.88
2023-11-20T01:18:35.025Z,96988.72
2023-11-20T01:21:02.626Z,96991.66
2023-11-20T01:23:29.593Z,96996.41
2023-11-20T01:25:57.246Z,97001.50
2023-11-20T01:28:24.267Z,96997.34
2023-11-20T01:30:52.509Z,97007.97
2023-11-20T01:33:19.725Z,97009.03
2023-11-20T01:35:49.796Z,97007.97
2023-11-20T01:38:17.671Z,97011.53
2023-11-20T01:40:45.440Z,97001.66
2023-11-20T01:43:13.387Z,97016.94
2023-11-20T01:45:40.204Z,97010.28
2023-11-20T01:48:07.381Z,97004.00
2023-11-20T01:50:34.369Z,97004.00
2023-11-20T01:53:02.607Z,97014.03
2023-11-20T01:55:30.262Z,97020.88
2023-11-20T01:57:57.542Z,97011.34
2023-11-20T02:00:27.786Z,97003.16
2023-11-20T02:02:54.914Z,97007.13
2023-11-20T02:05:21.873Z,96993.63
2023-11-20T02:07:49.066Z,96997.97
2023-11-20T02:10:16.168Z,96986.94
2023-11-20T02:12:43.282Z,96991.75
2023-11-20T02:15:11.020Z,96985.91
2023-11-20T02:17:38.060Z,96984.25
2023-11-20T02:20:05.420Z,96986.50
2023-11-20T02:22:32.269Z,96988.50
2023-11-20T02:24:59.230Z,96989.09
2023-11-20T02:27:42.100Z,96983.03
2023-11-20T02:30:10.154Z,96980.56
2023-11-20T02:32:37.182Z,96983.38
2023-11-20T02:35:06.223Z,96991.31
2023-11-20T02:37:33.306Z,96974.00
2023-11-20T02:40:00.499Z,96972.28
2023-11-20T02:42:27.481Z,96971.00
2023-11-20T02:44:54.351Z,96963.44
2023-11-20T02:47:23.987Z,96957.19
2023-11-20T02:49:51.239Z,96962.22
2023-11-20T02:52:18.301Z,96956.75
2023-11-20T02:54:48.189Z,96968.06
2023-11-20T02:57:15.339Z,96962.03
2023-11-20T02:59:42.341Z,96962.69
2023-11-20T03:02:09.175Z,96967.88
2023-11-20T03:04:36.020Z,96955.84
2023-11-20T03:07:02.998Z,96943.06
2023-11-20T03:09:29.897Z,96951.97
2023-11-20T03:11:56.804Z,96944.25
2023-11-20T03:14:23.963Z,96938.06
2023-11-20T03:16:52.222Z,96941.59
2023-11-20T03:19:19.308Z,96940.66
2023-11-20T03:21:46.273Z,96933.81
2023-11-20T03:24:13.585Z,96931.22
2023-11-20T03:26:40.445Z,96927.88
2023-11-20T03:29:07.381Z,96927.69
2023-11-20T03:31:38.428Z,96926.03
2023-11-20T03:34:09.444Z,96933.34
2023-11-20T03:36:36.655Z,96915.84
2023-11-20T03:39:04.593Z,96941.19
2023-11-20T03:41:31.610Z,96932.09
2023-11-20T03:43:58.428Z,96919.69
2023-11-20T03:46:25.581Z,96932.09
2023-11-20T03:48:52.626Z,96929.72
2023-11-20T03:51:19.619Z,96954.88
2023-11-20T03:53:46.562Z,96942.41
2023-11-20T03:56:14.297Z,96940.47
2023-11-20T03:58:41.634Z,96935.94
2023-11-20T04:01:09.264Z,96940.28
2023-11-20T04:03:36.390Z,96935.09
2023-11-20T04:06:06.613Z,96940.94
2023-11-20T04:08:33.774Z,96935.38
2023-11-20T04:11:01.083Z,96941.31
2023-11-20T04:13:31.129Z,96936.00
2023-11-20T04:15:59.415Z,96948.44
2023-11-20T04:18:26.922Z,96955.31
2023-11-20T04:20:56.300Z,96962.72
2023-11-20T04:23:23.445Z,96965.88
2023-11-20T04:25:53.493Z,96961.16
2023-11-20T04:28:20.370Z,96964.75
2023-11-20T04:30:48.074Z,96960.88
2023-11-20T04:33:15.060Z,96959.84
2023-11-20T04:35:43.562Z,96964.09
2023-11-20T04:38:10.480Z,96966.22
2023-11-20T04:40:37.491Z,96966.06
2023-11-20T04:43:04.582Z,96950.84
2023-11-20T04:45:31.588Z,96967.16
2023-11-20T04:47:59.072Z,96944.53
2023-11-20T04:50:26.415Z,96949.91
2023-11-20T04:52:53.162Z,96951.94
2023-11-20T04:55:20.070Z,96951.50
2023-11-20T04:57:46.898Z,96962.91
2023-11-20T05:00:14.051Z,96967.16
2023-11-20T05:02:41.133Z,96966.63
2023-11-20T05:05:08.381Z,96973.31
2023-11-20T05:07:35.693Z,96962.34
2023-11-20T05:10:02.746Z,96979.50
2023-11-20T05:12:30.399Z,96965.50
2023-11-20T05:14:57.166Z,96967.28
2023-11-20T05:17:24.220Z,96968.28
2023-11-20T05:19:50.993Z,96969.41
2023-11-20T05:22:18.978Z,96967.94
2023-11-20T05:24:45.640Z,96967.75
2023-11-20T05:27:12.773Z,96966.34
2023-11-20T05:29:40.640Z,96970.69
2023-11-20T05:32:08.183Z,96967.63
2023-11-20T05:34:35.741Z,96970.88
2023-11-20T05:37:03.089Z,96967.16
2023-11-20T05:39:30.431Z,96956.97
2023-11-20T05:41:57.709Z,96959.75
2023-11-20T05:44:24.700Z,96954.78
2023-11-20T05:46:52.768Z,96949.00
2023-11-20T05:49:19.971Z,96962.53
2023-11-20T05:51:46.985Z,96963.16
2023-11-20T05:54:13.962Z,96960.13
2023-11-20T05:56:42.471Z,96961.38
2023-11-20T05:59:12.232Z,96959.16
2023-11-20T06:01:43.337Z,96957.28
2023-11-20T06:04:11.175Z,96955.78
2023-11-20T06:06:38.266Z,96972.84
2023-11-20T06:09:07.430Z,96975.38
2023-11-20T06:11:35.819Z,96972.31
2023-11-20T06:14:03.251Z,96980.47
2023-11-20T06:16:33.071Z,96978.63
2023-11-20T06:19:00.326Z,96980.63
2023-11-20T06:21:27.277Z,96990.06
2023-11-20T06:23:56.489Z,96986.34
2023-11-20T06:26:23.970Z,96984.50
2023-11-20T06:28:51.032Z,96984.31
2023-11-20T06:31:18.378Z,96994.50
2023-11-20T06:33:45.298Z,96999.09
2023-11-20T06:36:12.188Z,96990.63
2023-11-20T06:38:39.120Z,96986.63
2023-11-20T06:41:06.072Z,96995.91
2023-11-20T06:43:33.006Z,96994.25
2023-11-20T06:46:01.650Z,97010.75
2023-11-20T06:48:29.640Z,97002.53
2023-11-20T06:50:56.542Z,97002.94
2023-11-20T06:53:23.540Z,97002.66
2023-11-20T06:55:50.620Z,97002.22
2023-11-20T06:58:17.582Z,96994.44
2023-11-20T07:00:45.236Z,96994.53
2023-11-20T07:03:12.733Z,96990.56
2023-11-20T07:05:39.806Z,96980.38
2023-11-20T07:08:10.106Z,96977.84
2023-11-20T07:10:37.626Z,96977.31
2023-11-20T07:13:04.877Z,96969.03
2023-11-20T07:15:34.929Z,96969.94
2023-11-20T07:18:02.642Z,96966.94
2023-11-20T07:20:29.721Z,96946.97
2023-11-20T07:23:01.665Z,96942.78
2023-11-20T07:25:34.632Z,96940.25
2023-11-20T07:28:02.450Z,96928.66
2023-11-20T07:30:33.623Z,96926.22
2023-11-20T07:33:01.155Z,96919.38
2023-11-20T07:35:28.581Z,96917.19
2023-11-20T07:37:55.585Z,96922.66
2023-11-20T07:40:22.810Z,96931.94
2023-11-20T07:42:49.639Z,96932.78
2023-11-20T07:45:17.015Z,96944.72
2023-11-20T07:47:46.929Z,96946.69
2023-11-20T07:50:16.024Z,96936.03
2023-11-20T07:52:44.402Z,96932.31
2023-11-20T07:55:13.680Z,96928.78
2023-11-20T07:57:41.663Z,96936.84
2023-11-20T08:00:13.592Z,96951.22
2023-11-20T08:02:40.918Z,96957.91
2023-11-20T08:05:10.305Z,96955.66
2023-11-20T08:07:37.398Z,96946.50
2023-11-20T08:10:07.608Z,96950.88
2023-11-20T08:12:35.090Z,96946.56
2023-11-20T08:15:02.088Z,96952.97
2023-11-20T08:17:28.942Z,96945.69
2023-11-20T08:19:55.766Z,96956.72
2023-11-20T08:22:22.582Z,96953.91
2023-11-20T08:24:49.439Z,96956.63
2023-11-20T08:27:16.298Z,96948.53
2023-11-20T08:29:44.281Z,96944.84
2023-11-20T08:32:11.269Z,96930.03
2023-11-20T08:34:38.041Z,96944.63
2023-11-20T08:37:05.101Z,96934.84
2023-11-20T08:39:37.066Z,96932.56
2023-11-20T08:42:04.581Z,96930.03
2023-11-20T08:44:31.895Z,96929.50
2023-11-20T08:46:59.728Z,96922.75
2023-11-20T08:49:28.124Z,96924.94
2023-11-20T08:52:01.745Z,96911.84
2023-11-20T08:54:32.432Z,96914.69
2023-11-20T08:56:59.131Z,96927.78
2023-11-20T08:59:26.827Z,96911.34
2023-11-20T09:01:54.947Z,96901.25
2023-11-20T09:04:22.682Z,96908.06
2023-11-20T09:06:50.142Z,96901.47
2023-11-20T09:09:18.025Z,96888.72
2023-11-20T09:11:45.885Z,96884.31
2023-11-20T09:14:13.731Z,96883.00
2023-11-20T09:16:40.953Z,96873.47
2023-11-20T09:19:07.873Z,96877.13
2023-11-20T09:21:35.744Z,96871.69
2023-11-20T09:24:02.291Z,96870.84
2023-11-20T09:26:29.507Z,96865.94
2023-11-20T09:28:56.326Z,96862.31
2023-11-20T09:31:23.705Z,96872.94
2023-11-20T09:33:51.860Z,96857.72
2023-11-20T09:36:20.043Z,96861.38
2023-11-20T09:38:47.246Z,96863.19
2023-11-20T09:41:15.427Z,96858.59
2023-11-20T09:43:45.392Z,96868.84
2023-11-20T09:46:15.428Z,96859.91
2023-11-20T09:48:45.005Z,96862.72
2023-11-20T09:51:14.108Z,96857.63
2023-11-20T09:53:43.657Z,96849.03
2023-11-20T09:56:14.206Z,96845.88
2023-11-20T09:58:44.904Z,96835.75
2023-11-20T10:01:15.589Z,96854.44
2023-11-20T10:03:44.649Z,96849.81
2023-11-20T10:06:15.860Z,96840.03
2023-11-20T10:08:47.692Z,96834.50
2023-11-20T10:11:18.775Z,96836.84
2023-11-20T10:13:45.839Z,96832.47
2023-11-20T10:16:27.884Z,96830.50
2023-11-20T10:18:54.884Z,96835.25
2023-11-20T10:21:21.953Z,96828.28
2023-11-20T10:23:56.356Z,96829.47
2023-11-20T10:26:23.983Z,96829.94
2023-11-20T10:28:50.956Z,96834.38
2023-11-20T10:31:18.315Z,96831.94
2023-11-20T10:33:45.258Z,96829.06
2023-11-20T10:36:16.855Z,96822.16
2023-11-20T10:38:44.888Z,96809.97
2023-11-20T10:41:13.203Z,96817.56
2023-11-20T10:43:44.148Z,96812.53
2023-11-20T10:46:11.153Z,96814.84
2023-11-20T10:48:39.849Z,96812.50
2023-11-20T10:51:11.567Z,96807.19
2023-11-20T10:53:43.384Z,96805.31
2023-11-20T10:56:13.676Z,96807.06
2023-11-20T10:58:41.991Z,96805.59
2023-11-20T11:01:10.516Z,96803.38
2023-11-20T11:03:39.384Z,96813.75
2023-11-20T11:06:15.604Z,96812.44
2023-11-20T11:08:47.192Z,96812.50
2023-11-20T11:11:17.766Z,96809.50
2023-11-20T11:13:45.513Z,96805.72
2023-11-20T11:16:19.633Z,96810.47
2023-11-20T11:18:56.841Z,96815.44
2023-11-20T11:21:31.554Z,96814.44
2023-11-20T11:23:59.616Z,96809.97
2023-11-20T11:26:31.607Z,96809.81
2023-11-20T11:29:03.365Z,96796.63
2023-11-20T11:31:54.178Z,96801.69
2023-11-20T11:34:57.625Z,96804.69
2023-11-20T11:37:59.092Z,96796.91
2023-11-20T11:41:03.545Z,96798.25
2023-11-20T11:43:36.536Z,96808.34
2023-11-20T11:46:05.252Z,96803.56
2023-11-20T11:48:35.990Z,96799.09
2023-11-20T11:51:06.523Z,96809.19
2023-11-20T11:53:33.318Z,96811.50
2023-11-20T11:56:06.124Z,96804.72
2023-11-20T11:58:34.233Z,96805.19
2023-11-20T12:01:18.263Z,96802.25
2023-11-20T12:03:45.552Z,96802.06
2023-11-20T12:06:15.254Z,96797.91
2023-11-20T12:08:42.132Z,96797.53
2023-11-20T12:11:12.354Z,96797.19
2023-11-20T12:14:11.050Z,96790.28
2023-11-20T12:16:38.498Z,96792.28
2023-11-20T12:19:05.664Z,96789.63
2023-11-20T12:21:32.621Z,96786.69
2023-11-20T12:24:35.833Z,96780.06
2023-11-20T12:27:03.932Z,96787.03
2023-11-20T12:29:31.739Z,96786.03
2023-11-20T12:32:02.338Z,96784.41
2023-11-20T12:34:30.712Z,96797.63
2023-11-20T12:36:57.789Z,96790.00
2023-11-20T12:39:24.721Z,96788.34
2023-11-20T12:41:51.757Z,96788.03
2023-11-20T12:44:18.712Z,96784.72
2023-11-20T12:46:46.749Z,96776.94
2023-11-20T12:49:14.570Z,96776.38
2023-11-20T12:51:43.530Z,96789.09
2023-11-20T12:54:10.554Z,96777.81
2023-11-20T12:56:37.409Z,96779.66
2023-11-20T12:59:05.379Z,96781.81
2023-11-20T13:01:32.206Z,96780.03
2023-11-20T13:04:02.143Z,96781.34
2023-11-20T13:06:30.129Z,96769.94
2023-11-20T13:08:56.748Z,96772.88
2023-11-20T13:11:25.342Z,96773.69
2023-11-20T13:13:52.750Z,96781.63
2023-11-20T13:16:21.099Z,96770.03
2023-11-20T13:18:50.544Z,96770.00
2023-11-20T13:21:22.608Z,96760.41
2023-11-20T13:23:59.635Z,96771.63
2023-11-20T13:26:26.536Z,96766.72
2023-11-20T13:28:53.522Z,96774.81
2023-11-20T13:31:32.501Z,96776.19
2023-11-20T13:34:05.499Z,96771.22
2023-11-20T13:36:35.267Z,96772.75
2023-11-20T13:39:04.122Z,96774.72
2023-11-20T13:41:30.980Z,96765.78
2023-11-20T13:43:57.757Z,96767.81
2023-11-20T13:46:24.588Z,96782.69
2023-11-20T13:48:51.441Z,96778.06
2023-11-20T13:51:19.967Z,96776.75
2023-11-20T13:53:47.664Z,96776.44
2023-11-20T13:56:15.211Z,96784.69
2023-11-20T13:58:41.916Z,96781.88
2023-11-20T14:01:11.413Z,96787.66
2023-11-20T14:03:38.905Z,96787.31
2023-11-20T14:06:06.429Z,96797.25
2023-11-20T14:08:33.758Z,96789.19
2023-11-20T14:11:00.974Z,96786.72
2023-11-20T14:13:30.024Z,96790.03
2023-11-20T14:15:57.991Z,96794.66
2023-11-20T14:18:29.432Z,96806.56
2023-11-20T14:20:59.894Z,96802.97
2023-11-20T14:23:28.311Z,96798.81
2023-11-20T14:26:14.445Z,96804.75
2023-11-20T14:28:42.547Z,96809.53
2023-11-20T14:31:09.622Z,96817.13
2023-11-20T14:33:36.538Z,96821.75
2023-11-20T14:36:05.484Z,96826.16
2023-11-20T14:38:33.722Z,96831.63
2023-11-20T14:41:00.854Z,96834.09
2023-11-20T14:43:27.722Z,96843.50
2023-11-20T14:45:54.577Z,96849.75
2023-11-20T14:48:23.052Z,96838.66
2023-11-20T14:50:49.958Z,96846.88
2023-11-20T14:53:17.055Z,96849.03
2023-11-20T14:55:44.161Z,96845.38
2023-11-20T14:58:10.935Z,96847.78
2023-11-20T15:00:40.550Z,96848.41
2023-11-20T15:03:10.116Z,96850.81
2023-11-20T15:05:39.144Z,96849.06
2023-11-20T15:08:06.646Z,96852.63
2023-11-20T15:10:33.862Z,96854.53
2023-11-20T15:13:00.978Z,96859.41
2023-11-20T15:15:28.862Z,96868.31
2023-11-20T15:17:55.582Z,96877.94
2023-11-20T15:20:25.681Z,96875.09
2023-11-20T15:22:52.814Z,96877.56
2023-11-20T15:25:20.237Z,96874.47
2023-11-20T15:27:47.621Z,96883.84
2023-11-20T15:30:16.732Z,96887.66
2023-11-20T15:32:45.137Z,96889.09
2023-11-20T15:35:12.316Z,96894.53
2023-11-20T15:37:39.735Z,96895.13
2023-11-20T15:40:09.991Z,96896.13
2023-11-20T15:42:38.236Z,96898.66
2023-11-20T15:45:06.365Z,96900.06
2023-11-20T15:47:34.221Z,96899.78
2023-11-20T15:50:01.962Z,96900.34
2023-11-20T15:52:29.586Z,96900.34
2023-11-20T15:54:58.096Z,96909.38
2023-11-20T15:57:25.333Z,96917.25
2023-11-20T15:59:52.177Z,96910.63
2023-11-20T16:02:19.885Z,96915.16
2023-11-20T16:04:46.964Z,96912.28
2023-11-20T16:07:15.983Z,96906.75
2023-11-20T16:09:43.202Z,96912.97
2023-11-20T16:12:10.862Z,96914.47
2023-11-20T16:14:39.311Z,96913.13
2023-11-20T16:17:06.597Z,96921.97
2023-11-20T16:19:33.578Z,96922.50
2023-11-20T16:22:01.389Z,96930.66
2023-11-20T16:24:28.857Z,96926.91
2023-11-20T16:26:55.759Z,96920.97
2023-11-20T16:29:22.736Z,96918.63
2023-11-20T16:31:55.530Z,96918.31
2023-11-20T16:34:22.887Z,96929.91
2023-11-20T16:36:49.798Z,96932.63
2023-11-20T16:39:17.101Z,96929.13
2023-11-20T16:41:43.844Z,96929.91
2023-11-20T16:44:10.605Z,96929.47
2023-11-20T16:46:38.183Z,96935.25
2023-11-20T16:49:08.345Z,96937.69
2023-11-20T16:51:35.322Z,96950.69
2023-11-20T16:54:02.966Z,96940.41
2023-11-20T16:56:34.056Z,96950.53
2023-11-20T16:59:05.415Z,96948.81
2023-11-20T17:01:32.919Z,96945.53
2023-11-20T17:04:03.044Z,96936.19
2023-11-20T17:06:31.471Z,96949.44
2023-11-20T17:08:58.451Z,96956.53
2023-11-20T17:11:26.293Z,96964.75
2023-11-20T17:13:54.204Z,96962.78
2023-11-20T17:16:21.568Z,96967.09
2023-11-20T17:18:48.639Z,96967.38
2023-11-20T17:21:15.683Z,96971.09
2023-11-20T17:23:42.520Z,96969.22
2023-11-20T17:26:09.461Z,96970.53
2023-11-20T17:28:36.347Z,96970.75
2023-11-20T17:31:06.568Z,96976.00
2023-11-20T17:33:34.131Z,96983.75
2023-11-20T17:36:01.214Z,96980.06
2023-11-20T17:38:28.120Z,96981.25
2023-11-20T17:40:56.491Z,96993.38
2023-11-20T17:43:23.723Z,96989.19
2023-11-20T17:45:50.903Z,96990.38
2023-11-20T17:48:24.885Z,96992.28
2023-11-20T17:50:51.805Z,96988.94
2023-11-20T17:53:19.366Z,96992.63
2023-11-20T17:55:46.852Z,97001.13
2023-11-20T17:58:14.049Z,96993.06
2023-11-20T18:00:40.877Z,96992.91
2023-11-20T18:03:08.578Z,96997.53
2023-11-20T18:05:39.801Z,96995.59
2023-11-20T18:08:06.952Z,97005.75
2023-11-20T18:10:34.225Z,97000.31
2023-11-20T18:13:04.329Z,96993.66
2023-11-20T18:15:32.741Z,96993.88
2023-11-20T18:17:59.953Z,97003.47
2023-11-20T18:23:54.309Z,97006.81
2023-11-20T18:23:54.929Z,97006.97
2023-11-20T18:26:21.294Z,96996.81
2023-11-20T18:28:48.212Z,96999.63
2023-11-20T18:31:15.012Z,97001.09
2023-11-20T18:33:41.993Z,97007.69
2023-11-20T18:36:14.063Z,97000.78
2023-11-20T18:38:41.882Z,96999.81
2023-11-20T18:41:09.258Z,97004.50
2023-11-20T18:43:36.181Z,97017.25
2023-11-20T18:46:03.168Z,97003.28
2023-11-20T18:48:30.025Z,97005.72
2023-11-20T18:50:56.887Z,97010.31
2023-11-20T18:53:24.262Z,97004.84
2023-11-20T18:55:51.191Z,97005.94
2023-11-20T18:58:18.971Z,97003.53
2023-11-20T19:00:45.985Z,97005.97
2023-11-20T19:03:15.398Z,97015.56
2023-11-20T19:05:51.676Z,97020.44
2023-11-20T19:08:26.540Z,97019.53
2023-11-20T19:10:53.653Z,97024.00
2023-11-20T19:13:20.566Z,97012.25
2023-11-20T19:15:48.098Z,97011.41
2023-11-20T19:18:14.925Z,97017.03
2023-11-20T19:20:42.944Z,97022.78
2023-11-20T19:23:09.779Z,97019.56
2023-11-20T19:25:36.974Z,97024.34
2023-11-20T19:28:04.109Z,97016.59
2023-11-20T19:30:31.329Z,97011.41
2023-11-20T19:32:58.400Z,97018.50
2023-11-20T19:35:25.624Z,97018.50
2023-11-20T19:37:53.406Z,97010.03
2023-11-20T19:40:21.770Z,97024.75
2023-11-20T19:42:51.814Z,97019.94
2023-11-20T19:45:20.316Z,97017.22
2023-11-20T19:47:47.965Z,97016.19
2023-11-20T19:50:15.075Z,97023.47
2023-11-20T19:52:46.581Z,97029.84
2023-11-20T19:55:16.821Z,97013.34
2023-11-20T19:57:46.600Z,97030.22
2023-11-20T20:00:18.768Z,97023.44
2023-11-20T20:02:48.638Z,97028.00
2023-11-20T20:05:19.651Z,97022.09
2023-11-20T20:07:48.426Z,97030.09
2023-11-20T20:10:44.849Z,97028.22
2023-11-20T20:13:12.497Z,97038.63
2023-11-20T20:15:39.601Z,97026.72
2023-11-20T20:18:06.981Z,97039.44
2023-11-20T20:20:33.824Z,97048.56
2023-11-20T20:23:01.286Z,97046.00
2023-11-20T20:25:28.557Z,97043.75
2023-11-20T20:27:56.808Z,97039.03
2023-11-20T20:30:26.788Z,97040.38
2023-11-20T20:32:54.018Z,97038.81
2023-11-20T20:35:21.041Z,97034.75
2023-11-20T20:37:47.923Z,97039.94
2023-11-20T20:40:29.158Z,97037.28
2023-11-20T20:43:01.138Z,97032.28
2023-11-20T20:45:29.916Z,97036.88
2023-11-20T20:47:57.405Z,97042.53
2023-11-20T20:50:24.650Z,97047.91
2023-11-20T20:52:52.412Z,97044.75
2023-11-20T20:55:19.728Z,97048.84
2023-11-20T20:57:48.971Z,97054.25
2023-11-20T21:00:18.947Z,97048.63
2023-11-20T21:02:46.056Z,97051.28
2023-11-20T21:05:13.743Z,97049.44
2023-11-20T21:07:41.256Z,97052.97
2023-11-20T21:10:11.574Z,97055.59
2023-11-20T21:12:39.595Z,97049.09
2023-11-20T21:15:07.655Z,97057.16
2023-11-20T21:17:34.680Z,97055.03
2023-11-20T21:20:05.248Z,97060.47
2023-11-20T21:22:32.226Z,97070.09
2023-11-20T21:24:59.050Z,97065.25
2023-11-20T21:27:26.158Z,97071.94
2023-11-20T21:29:53.289Z,97058.78
2023-11-20T21:32:20.216Z,97057.28
2023-11-20T21:34:55.001Z,97062.50
2023-11-20T21:37:25.396Z,97064.16
2023-11-20T21:39:52.302Z,97060.00
2023-11-20T21:42:19.238Z,97073.16
2023-11-20T21:44:46.116Z,97060.19
2023-11-20T21:47:13.123Z,97061.75
2023-11-20T21:49:41.542Z,97070.28
2023-11-20T21:52:11.753Z,97071.75
2023-11-20T21:54:38.785Z,97058.22
2023-11-20T21:57:05.832Z,97069.81
2023-11-20T21:59:32.601Z,97062.31
2023-11-20T22:02:00.096Z,97063.34
2023-11-20T22:04:27.592Z,97053.97
2023-11-20T22:06:55.059Z,97057.41
2023-11-20T22:09:22.091Z,97051.44
2023-11-20T22:11:48.898Z,97062.03
2023-11-20T22:14:15.711Z,97057.22
2023-11-20T22:16:43.109Z,97059.22
2023-11-20T22:19:11.075Z,97055.34
2023-11-20T22:21:38.523Z,97060.25
2023-11-20T22:24:07.087Z,97050.56
2023-11-20T22:26:33.955Z,97047.44
2023-11-20T22:29:02.378Z,97059.09
2023-11-20T22:31:29.517Z,97059.41
2023-11-20T22:33:56.551Z,97050.38
2023-11-20T22:36:23.783Z,97060.53
2023-11-20T22:38:52.395Z,97049.81
2023-11-20T22:41:19.558Z,97051.75
2023-11-20T22:43:46.606Z,97058.53
2023-11-20T22:46:13.447Z,97050.81
2023-11-20T22:48:40.382Z,97045.19
2023-11-20T22:51:08.186Z,97053.69
2023-11-20T22:53:35.813Z,97045.34
2023-11-20T22:56:02.981Z,97044.75
2023-11-20T22:58:32.669Z,97033.84
2023-11-20T23:01:01.632Z,97043.19
2023-11-20T23:03:29.567Z,97049.94
2023-11-20T23:05:56.889Z,97035.31
2023-11-20T23:08:23.892Z,97033.06
2023-11-20T23:10:50.783Z,97022.13
2023-11-20T23:13:19.023Z,97021.78
2023-11-20T23:15:47.924Z,97032.81
2023-11-20T23:18:15.294Z,97025.47
2023-11-20T23:20:42.299Z,97036.03
2023-11-20T23:23:11.724Z,97028.44
2023-11-20T23:25:38.903Z,97025.66
2023-11-20T23:28:06.299Z,97029.53
2023-11-20T23:30:33.727Z,97038.22
2023-11-20T23:33:00.758Z,97035.72
2023-11-20T23:35:27.851Z,97039.34
2023-11-20T23:37:54.949Z,97037.88
2023-11-20T23:40:23.726Z,97037.88
2023-11-20T23:42:51.336Z,97035.72
2023-11-20T23:45:19.040Z,97038.88
2023-11-20T23:47:47.254Z,97034.50
2023-11-20T23:50:14.152Z,97049.50
2023-11-20T23:52:41.000Z,97051.75
2023-11-20T23:55:09.290Z,97055.91
2023-11-20T23:57:37.644Z,97050.06
